Time;durP1;ratioP1;P1;durP2;ratioP2;P2;SDS_P1;SDS_P2;PMS_P1;PMS_P2;Temp;Humidity;BMP_temperature;BMP_pressure;BME280_temperature;BME280_humidity;BME280_pressure;Samples;Min_cycle;Max_cycle;Signal;HPM_P1;HPM_P2
2022/11/01 00:02:13;;;;;;;5.03;4.27;;;16.00;99.90;;;;;;5087207;28;20968;-77
2022/11/01 00:04:41;;;;;;;8.83;4.87;;;16.00;99.90;;;;;;5081175;28;20206;-77
2022/11/01 00:07:07;;;;;;;6.43;4.67;;;15.90;99.90;;;;;;5081746;28;20659;-76
2022/11/01 00:09:34;;;;;;;6.63;4.43;;;15.90;99.90;;;;;;5081614;28;20655;-77
2022/11/01 00:12:00;;;;;;;7.67;4.33;;;15.90;99.90;;;;;;5064170;28;20276;-76
2022/11/01 00:14:27;;;;;;;6.47;4.53;;;15.90;99.90;;;;;;5064362;28;20189;-77
2022/11/01 00:16:53;;;;;;;6.53;4.07;;;15.90;99.90;;;;;;5045625;28;20179;-76
2022/11/01 00:19:19;;;;;;;5.20;4.57;;;15.90;99.90;;;;;;5088127;28;20296;-76
2022/11/01 00:21:46;;;;;;;6.57;4.20;;;15.90;99.90;;;;;;5064579;28;20607;-76
2022/11/01 00:24:13;;;;;;;8.23;4.57;;;15.90;99.90;;;;;;5066317;28;20524;-76
2022/11/01 00:26:39;;;;;;;6.53;4.67;;;15.90;99.90;;;;;;5067847;28;20571;-77
2022/11/01 00:29:06;;;;;;;10.90;4.73;;;15.90;99.90;;;;;;5065301;28;20179;-76
2022/11/01 00:31:33;;;;;;;6.80;4.40;;;15.80;99.90;;;;;;5063130;28;20179;-76
2022/11/01 00:34:02;;;;;;;5.33;4.60;;;15.80;99.90;;;;;;5085626;28;20186;-77
2022/11/01 00:36:29;;;;;;;6.97;4.63;;;15.80;99.90;;;;;;5063202;28;20820;-77
2022/11/01 00:38:55;;;;;;;4.90;4.20;;;15.80;99.90;;;;;;5081248;28;20182;-76
2022/11/01 00:41:22;;;;;;;5.73;4.30;;;15.80;99.90;;;;;;5087693;28;20259;-77
2022/11/01 00:43:49;;;;;;;9.57;4.47;;;15.80;99.90;;;;;;5038878;28;20280;-76
2022/11/01 00:46:16;;;;;;;9.77;4.73;;;15.80;99.90;;;;;;5081124;28;20785;-76
2022/11/01 00:48:43;;;;;;;9.13;4.53;;;15.80;99.90;;;;;;5066009;28;20187;-76
2022/11/01 00:51:13;;;;;;;6.97;4.47;;;15.80;99.90;;;;;;5072105;28;20677;-76
2022/11/01 00:53:40;;;;;;;5.33;4.00;;;15.80;99.90;;;;;;5051527;28;20190;-76
2022/11/01 00:56:08;;;;;;;8.33;4.83;;;15.80;99.90;;;;;;5060165;28;20658;-76
2022/11/01 00:58:34;;;;;;;9.07;4.40;;;15.80;99.90;;;;;;5049187;28;20182;-77
2022/11/01 01:01:01;;;;;;;8.67;4.77;;;15.80;99.90;;;;;;5088434;28;20587;-76
2022/11/01 01:03:27;;;;;;;6.67;4.73;;;15.80;99.90;;;;;;5068598;28;20174;-76
2022/11/01 01:05:55;;;;;;;5.43;4.50;;;15.80;99.90;;;;;;5067808;28;20272;-76
2022/11/01 01:08:22;;;;;;;8.10;4.60;;;15.80;99.90;;;;;;5088155;28;20193;-76
2022/11/01 01:10:50;;;;;;;6.03;4.83;;;15.80;99.90;;;;;;5055329;28;20274;-76
2022/11/01 01:13:17;;;;;;;5.13;4.47;;;15.80;99.90;;;;;;5089011;28;20302;-76
2022/11/01 01:15:44;;;;;;;11.47;5.20;;;15.80;99.90;;;;;;5072019;28;20189;-77
2022/11/01 01:18:11;;;;;;;9.53;4.77;;;15.80;99.90;;;;;;5076524;28;20186;-77
2022/11/01 01:20:37;;;;;;;5.23;4.50;;;15.80;99.90;;;;;;5069038;28;20213;-76
2022/11/01 01:23:04;;;;;;;8.17;4.90;;;15.80;99.90;;;;;;5060633;28;20543;-76
2022/11/01 01:25:31;;;;;;;7.20;4.97;;;15.80;99.90;;;;;;5061021;28;20225;-76
2022/11/01 01:27:57;;;;;;;9.73;4.90;;;15.80;99.90;;;;;;5066472;28;20182;-77
2022/11/01 01:30:24;;;;;;;6.07;5.00;;;15.80;99.90;;;;;;5062448;28;20179;-76
2022/11/01 01:32:51;;;;;;;7.80;4.93;;;15.80;99.90;;;;;;5069636;28;20295;-77
2022/11/01 01:35:18;;;;;;;7.37;5.13;;;15.80;99.90;;;;;;5087719;28;20189;-76
2022/11/01 01:37:44;;;;;;;7.27;4.77;;;15.80;99.90;;;;;;5082434;28;20652;-76
2022/11/01 01:40:10;;;;;;;6.87;5.00;;;15.80;99.90;;;;;;5094890;28;20186;-77
2022/11/01 01:42:41;;;;;;;6.20;4.60;;;15.80;99.90;;;;;;5053821;28;20185;-76
2022/11/01 01:45:37;;;;;;;8.80;4.90;;;15.80;99.90;;;;;;5070218;28;20178;-77
2022/11/01 01:48:20;;;;;;;6.37;5.13;;;15.80;99.90;;;;;;5072450;28;20185;-77
2022/11/01 01:51:01;;;;;;;8.73;5.10;;;15.80;99.90;;;;;;5063383;28;20204;-76
2022/11/01 01:53:37;;;;;;;8.87;5.33;;;15.80;99.90;;;;;;5079240;28;20255;-76
2022/11/01 01:56:08;;;;;;;6.70;5.87;;;15.80;99.90;;;;;;5068292;28;20197;-77
2022/11/01 01:58:39;;;;;;;8.37;4.97;;;15.80;99.90;;;;;;5078503;28;20278;-76
2022/11/01 02:01:06;;;;;;;7.27;5.00;;;15.80;99.90;;;;;;5079772;28;20210;-76
2022/11/01 02:03:35;;;;;;;8.57;5.23;;;15.80;99.90;;;;;;5049895;28;20264;-77
2022/11/01 02:06:10;;;;;;;6.57;5.13;;;15.70;99.90;;;;;;5079903;28;20190;-76
2022/11/01 02:08:45;;;;;;;6.37;5.17;;;15.70;99.90;;;;;;5054268;28;20201;-76
2022/11/01 02:11:13;;;;;;;7.50;5.37;;;15.70;99.90;;;;;;5075104;28;20189;-77
2022/11/01 02:13:40;;;;;;;8.77;5.30;;;15.70;99.90;;;;;;5059641;28;20202;-76
2022/11/01 02:16:29;;;;;;;7.33;4.77;;;15.70;99.90;;;;;;5076932;28;20183;-76
2022/11/01 02:19:45;;;;;;;8.53;5.57;;;15.70;99.90;;;;;;5079320;28;20187;-76
2022/11/01 02:22:42;;;;;;;10.80;5.13;;;15.80;99.90;;;;;;5078436;28;20250;-76
2022/11/01 02:26:01;;;;;;;7.07;5.53;;;15.70;99.90;;;;;;5068342;28;20194;-76
2022/11/01 02:28:59;;;;;;;6.83;5.73;;;15.70;99.90;;;;;;5069148;28;20178;-76
2022/11/01 02:31:44;;;;;;;6.60;4.63;;;15.80;99.90;;;;;;5060156;28;20190;-76
2022/11/01 02:34:44;;;;;;;6.67;5.27;;;15.70;99.90;;;;;;5078453;28;20197;-76
2022/11/01 02:37:25;;;;;;;7.00;5.90;;;15.70;99.90;;;;;;5085105;28;20817;-76
2022/11/01 02:39:58;;;;;;;7.80;5.37;;;15.70;99.90;;;;;;5059980;28;20676;-76
2022/11/01 02:42:38;;;;;;;10.77;5.60;;;15.70;99.90;;;;;;5071029;28;20258;-76
2022/11/01 02:45:28;;;;;;;9.73;5.57;;;15.80;99.90;;;;;;5067060;28;20704;-76
2022/11/01 02:48:03;;;;;;;7.90;5.00;;;15.80;99.90;;;;;;5069481;28;20638;-76
2022/11/01 02:50:49;;;;;;;8.50;5.57;;;15.80;99.90;;;;;;5053969;28;20272;-76
2022/11/01 02:53:15;;;;;;;7.70;5.60;;;15.80;99.90;;;;;;5065030;28;20193;-76
2022/11/01 02:55:41;;;;;;;9.67;6.30;;;15.90;99.90;;;;;;5066000;28;20219;-76
2022/11/01 02:58:28;;;;;;;6.37;5.40;;;15.90;99.90;;;;;;5091458;28;20347;-76
2022/11/01 03:00:55;;;;;;;7.10;6.00;;;15.80;99.90;;;;;;5098584;28;20202;-76
2022/11/01 03:03:26;;;;;;;7.17;5.60;;;15.80;99.90;;;;;;5047975;28;20189;-76
2022/11/01 03:06:17;;;;;;;10.80;5.97;;;15.80;99.90;;;;;;5088406;28;20179;-76
2022/11/01 03:08:58;;;;;;;13.37;6.37;;;15.80;99.90;;;;;;5066661;28;20201;-76
2022/11/01 03:12:05;;;;;;;7.67;5.63;;;15.80;99.90;;;;;;5088195;28;20185;-76
2022/11/01 03:14:58;;;;;;;9.83;5.93;;;15.80;99.90;;;;;;5088079;28;20178;-76
2022/11/01 03:18:07;;;;;;;8.97;6.10;;;15.80;99.90;;;;;;5084857;28;20265;-76
2022/11/01 03:20:58;;;;;;;10.33;5.33;;;15.80;99.90;;;;;;5073393;28;20234;-76
2022/11/01 03:23:49;;;;;;;8.83;5.70;;;15.80;99.90;;;;;;5087792;28;20257;-76
2022/11/01 03:26:26;;;;;;;7.37;5.93;;;15.80;99.90;;;;;;5075923;28;20272;-76
2022/11/01 03:28:59;;;;;;;9.67;6.10;;;15.80;99.90;;;;;;5065741;28;20186;-76
2022/11/01 03:31:35;;;;;;;8.13;6.43;;;15.80;99.90;;;;;;5066047;28;20183;-76
2022/11/01 03:34:15;;;;;;;11.93;6.00;;;15.80;99.90;;;;;;5076835;28;20190;-76
2022/11/01 03:36:51;;;;;;;11.30;6.23;;;15.80;99.90;;;;;;5045181;28;20289;-76
2022/11/01 03:39:33;;;;;;;6.90;6.00;;;15.80;99.90;;;;;;5075608;28;20198;-76
2022/11/01 03:42:07;;;;;;;8.33;6.17;;;15.80;99.90;;;;;;5056088;28;20579;-76
2022/11/01 03:44:47;;;;;;;11.00;6.23;;;15.80;99.90;;;;;;5074199;28;20178;-76
2022/11/01 03:47:15;;;;;;;8.97;5.97;;;15.80;99.90;;;;;;5056837;28;20542;-76
2022/11/01 03:49:41;;;;;;;9.43;6.37;;;15.80;99.90;;;;;;5054831;28;20746;-76
2022/11/01 03:52:08;;;;;;;7.73;6.40;;;15.80;99.90;;;;;;5057834;28;20930;-76
2022/11/01 03:54:34;;;;;;;8.73;5.73;;;15.80;99.90;;;;;;5057780;28;20191;-76
2022/11/01 03:57:00;;;;;;;10.10;6.77;;;15.80;99.90;;;;;;5060233;28;20190;-76
2022/11/01 03:59:27;;;;;;;7.53;6.73;;;15.80;99.90;;;;;;5073906;28;20198;-76
2022/11/01 04:01:55;;;;;;;10.93;6.57;;;15.80;99.90;;;;;;5079820;28;20271;-75
2022/11/01 04:04:22;;;;;;;11.10;6.33;;;15.80;99.90;;;;;;5056444;28;20199;-76
2022/11/01 04:06:51;;;;;;;9.97;6.67;;;15.80;99.90;;;;;;5067009;28;20194;-76
2022/11/01 04:09:21;;;;;;;7.87;6.60;;;15.80;99.90;;;;;;5066748;28;20178;-76
2022/11/01 04:11:51;;;;;;;9.50;6.33;;;15.80;99.90;;;;;;5047922;28;20182;-76
2022/11/01 04:22:38;;;;;;;8.87;7.03;;;15.80;99.90;;;;;;5063148;28;20300;-76
2022/11/01 04:25:04;;;;;;;7.37;6.50;;;15.80;99.90;;;;;;5052938;28;20190;-76
2022/11/01 04:27:31;;;;;;;8.70;6.57;;;15.80;99.90;;;;;;5083149;28;20178;-76
2022/11/01 04:29:57;;;;;;;9.73;6.37;;;15.80;99.90;;;;;;5065288;28;20190;-76
2022/11/01 04:32:23;;;;;;;11.67;6.63;;;15.80;99.90;;;;;;5064762;28;20281;-76
2022/11/01 04:34:50;;;;;;;9.40;6.63;;;15.80;99.90;;;;;;5085074;28;20650;-75
2022/11/01 04:37:16;;;;;;;7.03;6.27;;;15.80;99.90;;;;;;5068372;28;20619;-76
2022/11/01 04:39:43;;;;;;;8.17;6.33;;;15.80;99.90;;;;;;5079906;28;20662;-76
2022/11/01 04:42:09;;;;;;;10.47;6.53;;;15.80;99.90;;;;;;5083779;28;20210;-76
2022/11/01 04:44:35;;;;;;;8.13;6.70;;;15.80;99.90;;;;;;5078219;28;20182;-76
2022/11/01 04:47:02;;;;;;;9.20;6.53;;;15.90;99.90;;;;;;5085106;28;20189;-76
2022/11/01 04:49:28;;;;;;;8.60;6.67;;;15.90;99.90;;;;;;5047303;28;20178;-76
2022/11/01 04:51:54;;;;;;;9.33;7.17;;;15.90;99.90;;;;;;5048080;28;20197;-76
2022/11/01 04:54:20;;;;;;;7.50;6.80;;;15.90;99.90;;;;;;5078719;28;20196;-76
2022/11/01 04:56:46;;;;;;;11.10;7.20;;;15.90;99.90;;;;;;5070351;28;20550;-76
2022/11/01 04:59:13;;;;;;;10.57;7.33;;;16.00;99.90;;;;;;5049365;28;20182;-76
2022/11/01 05:01:41;;;;;;;11.67;7.23;;;16.00;99.90;;;;;;5059032;28;20218;-76
2022/11/01 05:04:07;;;;;;;8.47;7.03;;;16.00;99.90;;;;;;5055173;28;20642;-76
2022/11/01 05:06:33;;;;;;;9.30;7.13;;;16.00;99.90;;;;;;5071344;28;20262;-76
2022/11/01 05:09:00;;;;;;;10.03;7.40;;;16.00;99.90;;;;;;5060142;28;20189;-76
2022/11/01 05:11:26;;;;;;;8.03;6.77;;;16.10;99.90;;;;;;5062789;28;20183;-76
2022/11/01 05:13:52;;;;;;;9.10;6.63;;;16.10;99.90;;;;;;5044833;28;20888;-76
2022/11/01 05:16:18;;;;;;;9.60;7.07;;;16.10;99.90;;;;;;5078213;28;20190;-76
2022/11/01 05:18:46;;;;;;;10.20;7.53;;;16.10;99.90;;;;;;5051450;28;20186;-76
2022/11/01 05:21:12;;;;;;;11.37;7.67;;;16.20;99.90;;;;;;5062889;28;20760;-76
2022/11/01 05:23:38;;;;;;;9.43;7.80;;;16.20;99.90;;;;;;5068706;28;20175;-76
2022/11/01 05:26:05;;;;;;;13.10;8.20;;;16.30;99.90;;;;;;5058646;28;20521;-76
2022/11/01 05:28:33;;;;;;;9.60;7.70;;;16.30;99.90;;;;;;5075770;28;20187;-76
2022/11/01 05:31:00;;;;;;;10.70;8.50;;;16.30;99.90;;;;;;5061815;28;20239;-76
2022/11/01 05:33:26;;;;;;;11.23;8.27;;;16.40;99.90;;;;;;5058660;28;20540;-76
2022/11/01 05:35:52;;;;;;;12.03;8.10;;;16.40;99.90;;;;;;5074677;28;20193;-76
2022/11/01 05:38:19;;;;;;;9.07;7.53;;;16.40;99.90;;;;;;5084265;28;20584;-76
2022/11/01 05:40:45;;;;;;;10.07;7.30;;;16.50;99.90;;;;;;5066003;28;20545;-76
2022/11/01 05:43:11;;;;;;;15.53;8.70;;;16.60;99.90;;;;;;5065091;28;20597;-76
2022/11/01 05:45:38;;;;;;;9.90;8.67;;;16.60;99.90;;;;;;5069954;28;20183;-76
2022/11/01 05:48:05;;;;;;;12.20;8.90;;;16.70;99.90;;;;;;5075770;28;20202;-76
2022/11/01 05:50:31;;;;;;;16.90;10.17;;;16.70;99.90;;;;;;5068245;28;20186;-76
2022/11/01 05:53:09;;;;;;;10.87;8.77;;;16.70;99.90;;;;;;5072459;28;20631;-76
2022/11/01 05:55:36;;;;;;;13.63;9.33;;;16.80;99.90;;;;;;5062315;28;21102;-76
2022/11/01 05:58:03;;;;;;;11.73;9.57;;;16.70;99.90;;;;;;5056021;28;20546;-76
2022/11/01 06:00:32;;;;;;;12.57;8.93;;;16.80;99.90;;;;;;5059045;28;20662;-76
2022/11/01 06:02:59;;;;;;;18.87;10.07;;;16.80;99.90;;;;;;5076413;28;20182;-76
2022/11/01 06:05:26;;;;;;;17.80;9.47;;;16.90;99.90;;;;;;5064068;28;20543;-76
2022/11/01 06:07:52;;;;;;;12.63;10.00;;;16.90;99.90;;;;;;5051238;28;20198;-76
2022/11/01 06:10:19;;;;;;;13.50;9.40;;;17.00;99.90;;;;;;5068342;28;20708;-76
2022/11/01 06:12:45;;;;;;;14.57;9.10;;;17.00;99.90;;;;;;5042294;28;20190;-76
2022/11/01 06:15:11;;;;;;;11.23;8.63;;;17.00;99.90;;;;;;5069409;28;20197;-75
2022/11/01 06:17:38;;;;;;;11.80;8.70;;;17.10;99.90;;;;;;5074437;28;20212;-76
2022/11/01 06:20:05;;;;;;;14.23;8.67;;;17.10;99.90;;;;;;5072156;28;20182;-76
2022/11/01 06:22:34;;;;;;;12.60;8.37;;;17.10;99.90;;;;;;5082051;28;20210;-76
2022/11/01 06:25:01;;;;;;;12.20;8.23;;;17.10;99.90;;;;;;5073339;28;20277;-76
2022/11/01 06:27:32;;;;;;;9.97;8.53;;;17.20;99.90;;;;;;5058772;28;20198;-76
2022/11/01 06:29:59;;;;;;;16.93;8.40;;;17.30;99.90;;;;;;5049801;28;20726;-76
2022/11/01 06:32:26;;;;;;;12.93;8.33;;;17.40;99.90;;;;;;5070892;28;20226;-76
2022/11/01 06:34:53;;;;;;;10.60;7.83;;;17.40;99.90;;;;;;5050749;28;20186;-76
2022/11/01 06:37:20;;;;;;;12.50;7.63;;;17.50;99.90;;;;;;5064549;28;20217;-76
2022/11/01 06:39:47;;;;;;;15.17;8.53;;;17.50;99.90;;;;;;5085239;28;20310;-76
2022/11/01 06:42:13;;;;;;;13.00;7.67;;;17.60;99.90;;;;;;5065998;28;20243;-76
2022/11/01 06:44:39;;;;;;;9.30;6.83;;;17.60;99.90;;;;;;5066211;28;20201;-76
2022/11/01 06:47:10;;;;;;;8.70;6.70;;;17.70;99.90;;;;;;5083093;28;20651;-76
2022/11/01 06:49:38;;;;;;;14.13;7.63;;;17.80;99.90;;;;;;5076282;28;20183;-76
2022/11/01 06:52:05;;;;;;;9.20;7.67;;;17.80;99.90;;;;;;5060559;28;20251;-76
2022/11/01 06:54:32;;;;;;;12.80;7.70;;;17.80;99.90;;;;;;5037877;28;20179;-76
2022/11/01 06:56:58;;;;;;;12.33;7.23;;;17.80;99.90;;;;;;5066610;28;20249;-76
2022/11/01 06:59:25;;;;;;;13.43;7.17;;;17.90;99.90;;;;;;5055475;28;20329;-76
2022/11/01 07:01:52;;;;;;;16.33;7.67;;;17.90;99.90;;;;;;5070807;28;20599;-76
2022/11/01 07:04:20;;;;;;;9.87;7.03;;;17.90;99.90;;;;;;5046072;28;20235;-76
2022/11/01 07:06:48;;;;;;;11.43;6.77;;;17.90;99.90;;;;;;5052672;28;20265;-76
2022/11/01 07:09:14;;;;;;;8.50;7.17;;;17.90;99.90;;;;;;5065170;28;20181;-76
2022/11/01 07:11:44;;;;;;;9.30;6.97;;;18.00;99.90;;;;;;5073152;28;20608;-76
2022/11/01 07:14:13;;;;;;;16.40;7.23;;;18.00;99.90;;;;;;5037055;28;20193;-76
2022/11/01 07:16:40;;;;;;;13.80;7.10;;;18.00;99.90;;;;;;5053495;28;20237;-75
2022/11/01 07:19:06;;;;;;;9.60;6.90;;;18.10;99.90;;;;;;5071271;28;20634;-76
2022/11/01 07:21:33;;;;;;;16.03;7.70;;;18.10;99.90;;;;;;5079507;28;20289;-76
2022/11/01 07:23:59;;;;;;;10.23;6.83;;;18.10;99.90;;;;;;5067908;28;20669;-76
2022/11/01 07:26:25;;;;;;;9.23;6.90;;;18.10;99.90;;;;;;5041958;28;20179;-76
2022/11/01 07:28:51;;;;;;;11.20;7.07;;;18.20;99.90;;;;;;5042397;28;20178;-75
2022/11/01 07:31:18;;;;;;;12.43;6.53;;;18.30;99.90;;;;;;5074092;28;20190;-76
2022/11/01 07:33:44;;;;;;;16.57;7.13;;;18.30;99.90;;;;;;5070091;28;20286;-76
2022/11/01 07:36:12;;;;;;;11.63;7.60;;;18.30;99.90;;;;;;5063311;28;20204;-76
2022/11/01 07:38:39;;;;;;;9.37;6.50;;;18.40;99.90;;;;;;5067770;28;20596;-76
2022/11/01 07:41:06;;;;;;;14.33;6.67;;;18.40;99.90;;;;;;5066611;28;20564;-76
2022/11/01 07:43:34;;;;;;;8.27;6.23;;;18.50;99.90;;;;;;5078937;28;20186;-76
2022/11/01 07:46:03;;;;;;;10.63;6.73;;;18.50;99.90;;;;;;5045879;28;20194;-76
2022/11/01 07:48:29;;;;;;;7.50;6.00;;;18.60;99.90;;;;;;5077202;28;20198;-75
2022/11/01 07:50:56;;;;;;;13.70;6.50;;;18.70;99.90;;;;;;5060775;28;20645;-76
2022/11/01 07:53:23;;;;;;;7.60;6.17;;;18.70;99.90;;;;;;5077506;28;20197;-76
2022/11/01 07:55:50;;;;;;;10.57;6.03;;;18.80;99.90;;;;;;5065043;28;20200;-76
2022/11/01 07:58:16;;;;;;;9.93;6.47;;;18.80;99.90;;;;;;5065773;28;20201;-76
2022/11/01 08:00:44;;;;;;;14.83;6.17;;;18.90;99.90;;;;;;5057393;28;21025;-76
2022/11/01 08:03:18;;;;;;;11.20;5.93;;;18.90;99.90;;;;;;5054585;28;20319;-75
2022/11/01 08:05:46;;;;;;;11.93;5.77;;;18.90;99.90;;;;;;5065539;28;20285;-76
2022/11/01 08:08:14;;;;;;;11.07;5.77;;;19.00;99.90;;;;;;5076527;28;20186;-76
2022/11/01 08:10:41;;;;;;;13.90;6.07;;;19.10;99.90;;;;;;5064310;28;20248;-76
2022/11/01 08:13:20;;;;;;;8.53;5.30;;;19.10;99.90;;;;;;5058142;28;20197;-76
2022/11/01 08:15:48;;;;;;;11.23;5.73;;;19.10;99.90;;;;;;5046511;28;20213;-76
2022/11/01 08:18:21;;;;;;;7.27;5.57;;;19.20;99.90;;;;;;5075706;28;20189;-76
2022/11/01 08:20:48;;;;;;;11.50;5.83;;;19.30;99.90;;;;;;5059157;28;20717;-76
2022/11/01 08:23:15;;;;;;;10.20;5.87;;;19.30;99.90;;;;;;5069582;28;20759;-76
2022/11/01 08:25:42;;;;;;;9.33;5.90;;;19.40;99.90;;;;;;5045479;28;20241;-76
2022/11/01 08:28:16;;;;;;;9.83;5.50;;;19.50;99.90;;;;;;5071811;28;20182;-76
2022/11/01 08:30:46;;;;;;;6.83;5.43;;;19.60;99.90;;;;;;5074420;28;20581;-76
2022/11/01 08:33:12;;;;;;;10.53;5.47;;;19.60;99.90;;;;;;5077037;28;20280;-76
2022/11/01 08:35:39;;;;;;;6.40;5.00;;;19.70;99.90;;;;;;5072062;28;20848;-76
2022/11/01 08:38:05;;;;;;;12.63;5.47;;;19.70;99.90;;;;;;5075626;28;20222;-76
2022/11/01 08:40:33;;;;;;;13.30;4.80;;;19.60;99.90;;;;;;5048112;28;20202;-76
2022/11/01 08:43:00;;;;;;;10.40;4.97;;;19.60;99.90;;;;;;5076044;28;20186;-76
2022/11/01 08:45:26;;;;;;;10.23;4.83;;;19.50;99.90;;;;;;5062210;28;20739;-76
2022/11/01 08:48:03;;;;;;;5.77;4.57;;;19.60;99.90;;;;;;5056880;28;20193;-76
2022/11/01 08:50:32;;;;;;;7.40;4.50;;;19.60;99.90;;;;;;5071811;28;20273;-75
2022/11/01 08:53:07;;;;;;;10.70;4.43;;;19.60;99.90;;;;;;5043905;28;20190;-76
2022/11/01 08:55:35;;;;;;;15.37;4.87;;;19.60;99.90;;;;;;5060666;28;20651;-76
2022/11/01 08:58:02;;;;;;;11.63;4.10;;;19.70;99.90;;;;;;5061587;28;20190;-76
2022/11/01 09:00:29;;;;;;;8.53;4.50;;;19.80;99.90;;;;;;5059673;28;20189;-76
2022/11/01 09:02:55;;;;;;;10.20;3.77;;;19.90;99.90;;;;;;5081272;28;20244;-76
2022/11/01 09:05:22;;;;;;;9.80;4.27;;;19.90;99.90;;;;;;5052974;28;20191;-76
2022/11/01 09:07:54;;;;;;;10.10;4.03;;;19.90;99.90;;;;;;5046772;28;20194;-75
2022/11/01 09:10:20;;;;;;;7.40;3.80;;;20.00;99.90;;;;;;5073324;28;20849;-75
2022/11/01 09:12:47;;;;;;;10.20;3.90;;;20.10;99.90;;;;;;5068759;28;20269;-76
2022/11/01 09:15:16;;;;;;;5.97;3.70;;;20.20;99.90;;;;;;5076326;28;20262;-76
2022/11/01 09:17:42;;;;;;;8.10;3.80;;;20.20;99.90;;;;;;5044189;28;20190;-76
2022/11/01 09:20:09;;;;;;;9.13;4.60;;;20.20;99.90;;;;;;5088064;28;20887;-76
2022/11/01 09:22:36;;;;;;;6.37;3.67;;;20.30;99.90;;;;;;5068964;28;20206;-76
2022/11/01 09:25:04;;;;;;;11.70;3.80;;;20.40;99.90;;;;;;5058074;28;20342;-75
2022/11/01 09:27:31;;;;;;;10.33;4.10;;;20.50;99.90;;;;;;5074678;28;20189;-76
2022/11/01 09:29:57;;;;;;;8.40;3.50;;;20.50;99.90;;;;;;5060027;28;20645;-76
2022/11/01 09:32:28;;;;;;;11.60;4.00;;;20.60;99.90;;;;;;5056778;28;20190;-76
2022/11/01 09:34:54;;;;;;;12.77;4.03;;;20.60;99.90;;;;;;5066131;28;20195;-75
2022/11/01 09:37:20;;;;;;;15.10;3.87;;;20.60;99.90;;;;;;5069003;28;20733;-77
2022/11/01 09:39:46;;;;;;;5.43;3.63;;;20.70;99.90;;;;;;5082556;28;20218;-76
2022/11/01 09:42:34;;;;;;;7.90;3.53;;;20.70;99.90;;;;;;5081535;28;20273;-76
2022/11/01 09:45:25;;;;;;;7.67;3.53;;;20.80;99.90;;;;;;5065520;28;20567;-76
2022/11/01 09:47:59;;;;;;;9.57;3.60;;;20.80;99.90;;;;;;5082323;28;20191;-76
2022/11/01 09:50:32;;;;;;;10.43;3.80;;;20.90;99.90;;;;;;5042599;28;20540;-75
2022/11/01 09:53:01;;;;;;;13.43;4.00;;;21.00;99.90;;;;;;5080979;28;20179;-76
2022/11/01 09:56:09;;;;;;;12.13;3.70;;;21.10;99.90;;;;;;5056738;28;20274;-76
2022/11/01 09:59:16;;;;;;;25.77;4.00;;;21.10;99.90;;;;;;5075092;28;20189;-76
2022/11/01 10:02:03;;;;;;;9.87;4.10;;;21.20;99.90;;;;;;5065388;28;20249;-76
2022/11/01 10:05:26;;;;;;;9.70;3.60;;;21.30;99.90;;;;;;5079663;28;20193;-76
2022/11/01 10:08:07;;;;;;;11.03;4.07;;;21.40;99.90;;;;;;5082530;28;20263;-76
2022/11/01 10:11:05;;;;;;;8.00;3.70;;;21.50;99.90;;;;;;5064719;28;20894;-76
2022/11/01 10:14:14;;;;;;;6.77;3.50;;;21.80;99.90;;;;;;5062401;28;20285;-76
2022/11/01 10:17:04;;;;;;;9.73;3.60;;;21.80;99.90;;;;;;5081818;28;20673;-76
2022/11/01 10:19:34;;;;;;;10.80;3.78;;;22.20;99.90;;;;;;5057406;28;20191;-76
2022/11/01 10:22:14;;;;;;;10.80;3.87;;;22.70;99.90;;;;;;5046013;28;20578;-76
2022/11/01 10:25:03;;;;;;;8.37;3.97;;;23.60;99.90;;;;;;5044170;28;20201;-76
2022/11/01 10:27:54;;;;;;;9.27;3.57;;;23.20;99.90;;;;;;5082630;28;20228;-76
2022/11/01 10:30:22;;;;;;;11.40;3.83;;;22.20;99.90;;;;;;5081877;28;20186;-77
2022/11/01 10:33:13;;;;;;;5.20;3.70;;;21.60;99.90;;;;;;5068838;28;20214;-76
2022/11/01 10:35:53;;;;;;;9.80;4.10;;;21.20;99.90;;;;;;5081322;28;20559;-76
2022/11/01 10:38:47;;;;;;;6.60;3.60;;;20.80;99.90;;;;;;5083031;28;20278;-76
2022/11/01 10:41:29;;;;;;;7.07;4.33;;;20.70;99.90;;;;;;5078540;28;20244;-76
2022/11/01 10:44:02;;;;;;;10.77;3.83;;;20.60;99.90;;;;;;5057155;28;20198;-76
2022/11/01 10:46:39;;;;;;;10.10;4.47;;;20.50;99.90;;;;;;5071875;28;20587;-76
2022/11/01 10:49:18;;;;;;;5.80;3.60;;;20.50;99.90;;;;;;5063610;28;20193;-76
2022/11/01 10:51:48;;;;;;;12.90;4.20;;;20.30;99.90;;;;;;5078622;28;20225;-76
2022/11/01 10:54:29;;;;;;;10.80;4.33;;;20.30;99.90;;;;;;5076601;28;20201;-76
2022/11/01 10:57:07;;;;;;;7.67;4.10;;;20.20;99.90;;;;;;5069411;28;20182;-76
2022/11/01 10:59:40;;;;;;;9.40;3.83;;;20.20;99.90;;;;;;5063849;28;20185;-76
2022/11/01 11:02:32;;;;;;;10.47;4.20;;;20.20;99.90;;;;;;5059481;28;20202;-77
2022/11/01 11:04:58;;;;;;;9.07;3.80;;;20.20;99.90;;;;;;5072827;28;20201;-76
2022/11/01 11:07:30;;;;;;;10.23;4.20;;;20.20;99.90;;;;;;5058573;28;20221;-76
2022/11/01 11:09:56;;;;;;;7.27;3.73;;;20.20;99.90;;;;;;5062118;28;20332;-76
2022/11/01 11:12:26;;;;;;;8.00;3.60;;;20.20;99.90;;;;;;5062282;28;20274;-76
2022/11/01 11:15:00;;;;;;;7.37;4.23;;;20.20;99.90;;;;;;5049072;28;20316;-76
2022/11/01 11:17:42;;;;;;;6.80;4.20;;;20.20;99.90;;;;;;5087796;28;20218;-76
2022/11/01 11:20:20;;;;;;;9.97;4.13;;;20.10;99.90;;;;;;5053995;28;20201;-76
2022/11/01 11:22:47;;;;;;;6.53;3.90;;;20.10;99.90;;;;;;5068441;28;20271;-76
2022/11/01 11:25:18;;;;;;;7.93;4.00;;;20.10;99.90;;;;;;5067161;28;20190;-76
2022/11/01 11:27:55;;;;;;;7.23;4.23;;;20.10;99.90;;;;;;5064718;28;20404;-76
2022/11/01 11:30:35;;;;;;;10.80;3.90;;;20.20;99.90;;;;;;5041942;28;20190;-76
2022/11/01 11:33:02;;;;;;;8.13;3.93;;;20.20;99.90;;;;;;5080415;28;20714;-76
2022/11/01 11:35:32;;;;;;;6.77;4.50;;;20.30;99.90;;;;;;5077394;28;20212;-76
2022/11/01 11:38:05;;;;;;;8.43;3.93;;;20.30;99.90;;;;;;5082549;28;20193;-76
2022/11/01 11:40:44;;;;;;;6.43;3.93;;;20.30;99.90;;;;;;5074831;28;20284;-76
2022/11/01 11:43:22;;;;;;;8.13;3.70;;;20.30;99.90;;;;;;5077396;28;20214;-76
2022/11/01 11:46:25;;;;;;;8.10;3.90;;;20.30;99.90;;;;;;5061751;28;20177;-76
2022/11/01 11:49:05;;;;;;;5.50;3.67;;;20.40;99.90;;;;;;5056726;28;20273;-76
2022/11/01 11:51:39;;;;;;;8.03;3.90;;;20.40;99.90;;;;;;5072569;28;20327;-76
2022/11/01 11:54:25;;;;;;;8.63;3.90;;;20.40;99.90;;;;;;5076802;28;20190;-76
2022/11/01 11:57:23;;;;;;;11.50;4.10;;;20.40;99.90;;;;;;5053132;28;20595;-76
2022/11/01 12:00:04;;;;;;;10.37;3.63;;;20.40;99.90;;;;;;5072717;28;20194;-77
2022/11/01 12:02:39;;;;;;;13.07;3.83;;;20.40;99.90;;;;;;5056313;28;20502;-76
2022/11/01 12:05:21;;;;;;;6.00;3.60;;;20.30;99.90;;;;;;5076492;28;20649;-76
2022/11/01 12:07:56;;;;;;;4.87;3.50;;;20.40;99.90;;;;;;5068302;28;20923;-76
2022/11/01 12:10:45;;;;;;;6.87;3.83;;;20.40;99.90;;;;;;5062964;28;20273;-77
2022/11/01 12:13:34;;;;;;;8.13;4.10;;;20.40;99.90;;;;;;5079483;28;20190;-76
2022/11/01 12:16:20;;;;;;;6.17;3.90;;;20.40;99.90;;;;;;5049553;28;20278;-76
2022/11/01 12:18:53;;;;;;;5.20;3.73;;;20.40;99.90;;;;;;5081957;28;20212;-76
2022/11/01 12:21:34;;;;;;;6.00;4.00;;;20.30;99.90;;;;;;5065006;28;20207;-77
2022/11/01 12:24:11;;;;;;;10.37;4.13;;;20.30;99.90;;;;;;5063746;28;20183;-76
2022/11/01 12:26:38;;;;;;;4.80;3.57;;;20.30;99.90;;;;;;5079914;28;20280;-76
2022/11/01 12:29:23;;;;;;;9.13;3.83;;;20.30;99.90;;;;;;5085600;28;20634;-76
2022/11/01 12:31:54;;;;;;;6.80;3.47;;;20.20;99.90;;;;;;5059767;28;20586;-76
2022/11/01 12:34:26;;;;;;;6.83;3.90;;;20.20;99.90;;;;;;5068470;28;20178;-76
2022/11/01 12:37:18;;;;;;;10.27;4.00;;;20.20;99.90;;;;;;5065260;28;20204;-76
2022/11/01 12:39:55;;;;;;;9.53;3.77;;;20.20;99.90;;;;;;5079194;28;20580;-76
2022/11/01 12:43:02;;;;;;;9.77;4.00;;;20.20;99.90;;;;;;5063826;28;20240;-76
2022/11/01 12:46:00;;;;;;;9.87;4.10;;;20.20;99.90;;;;;;5079047;28;20632;-77
2022/11/01 12:48:43;;;;;;;8.10;3.60;;;20.20;99.90;;;;;;5078094;28;20190;-76
2022/11/01 12:51:41;;;;;;;9.03;4.00;;;20.20;99.90;;;;;;5062807;28;20189;-76
2022/11/01 12:54:20;;;;;;;11.67;3.87;;;20.10;99.90;;;;;;5082451;28;20366;-76
2022/11/01 12:56:47;;;;;;;7.07;3.77;;;20.10;99.90;;;;;;5062431;28;20680;-76
2022/11/01 12:59:23;;;;;;;14.03;4.10;;;20.10;99.90;;;;;;5084472;28;20270;-76
2022/11/01 13:02:30;;;;;;;6.97;3.97;;;20.00;99.90;;;;;;5047336;28;20211;-76
2022/11/01 13:22:53;;;;;;;9.68;4.10;;;19.90;99.90;;;;;;5081562;27;20965;-77
2022/11/01 13:25:49;;;;;;;8.23;4.13;;;20.00;99.90;;;;;;5044125;28;20292;-78
2022/11/01 13:28:56;;;;;;;5.00;3.80;;;20.00;99.90;;;;;;5046286;28;20206;-78
2022/11/01 13:32:04;;;;;;;9.87;4.47;;;19.90;99.90;;;;;;5060631;28;20194;-77
2022/11/01 13:34:51;;;;;;;10.37;4.47;;;19.90;99.90;;;;;;4992195;28;20833;-78
2022/11/01 13:37:36;;;;;;;10.23;4.40;;;19.90;99.90;;;;;;4997752;28;20195;-78
2022/11/01 13:40:29;;;;;;;6.43;4.40;;;19.90;99.90;;;;;;5055046;28;20205;-77
2022/11/01 13:43:03;;;;;;;8.10;3.70;;;19.90;99.90;;;;;;5024507;28;20199;-77